Terminal Aerodrome Forecast
Issued by NWS Dodge City, KS

Home | Current Version | Previous Version | Graphics & Text | Print | Product List | Glossary Off
Versions: 1 2 3 4 5 6 7 8 9 10 11 12 13 14 15 16 17 18 19 20 21 22 23 24 25 26 27 28 29 30 31 32 33 34 35 36 37 38 39 40 41 42 43 44 45 46 47 48 49 50

301
FTUS43 KDDC 201202 AAB
TAFDDC
TAF AMD
KDDC 201202Z 2012/2112 35016G27KT 4SM -SN BR BKN009 OVC015
     FM201500 36016G26KT P6SM BKN030
     FM201800 36015G25KT P6SM SKC
     FM210300 01013KT P6SM SKC=

USA.gov is the U.S. government's official web portal to all federal, state and local government web resources and services.